sensor_id;sensor_type;location;lat;lon;timestamp;P1;durP1;ratioP1;P2;durP2;ratioP2
10450;SDS011;5273;51.290;6.918;2022-10-16T00:01:56;2.72;;;1.63;;
10450;SDS011;5273;51.290;6.918;2022-10-16T00:04:23;3.58;;;1.40;;
10450;SDS011;5273;51.290;6.918;2022-10-16T00:06:50;2.35;;;1.90;;
10450;SDS011;5273;51.290;6.918;2022-10-16T00:09:17;2.42;;;1.90;;
10450;SDS011;5273;51.290;6.918;2022-10-16T00:11:45;2.17;;;1.80;;
10450;SDS011;5273;51.290;6.918;2022-10-16T00:14:14;3.13;;;1.60;;
10450;SDS011;5273;51.290;6.918;2022-10-16T00:16:41;2.83;;;1.80;;
10450;SDS011;5273;51.290;6.918;2022-10-16T00:19:09;2.42;;;1.70;;
10450;SDS011;5273;51.290;6.918;2022-10-16T00:21:36;1.98;;;1.40;;
10450;SDS011;5273;51.290;6.918;2022-10-16T00:24:04;4.28;;;1.75;;
10450;SDS011;5273;51.290;6.918;2022-10-16T00:26:33;2.38;;;1.65;;
10450;SDS011;5273;51.290;6.918;2022-10-16T00:29:02;3.10;;;1.60;;
10450;SDS011;5273;51.290;6.918;2022-10-16T00:31:29;1.50;;;1.40;;
10450;SDS011;5273;51.290;6.918;2022-10-16T00:33:56;2.03;;;1.55;;
10450;SDS011;5273;51.290;6.918;2022-10-16T00:36:24;1.52;;;1.42;;
10450;SDS011;5273;51.290;6.918;2022-10-16T00:38:52;1.83;;;1.60;;
10450;SDS011;5273;51.290;6.918;2022-10-16T00:41:20;2.63;;;1.92;;
10450;SDS011;5273;51.290;6.918;2022-10-16T00:43:48;3.30;;;1.55;;
10450;SDS011;5273;51.290;6.918;2022-10-16T00:46:19;1.73;;;1.63;;
10450;SDS011;5273;51.290;6.918;2022-10-16T00:48:50;2.03;;;1.70;;
10450;SDS011;5273;51.290;6.918;2022-10-16T00:51:19;1.33;;;1.27;;
10450;SDS011;5273;51.290;6.918;2022-10-16T00:53:49;2.20;;;1.67;;
10450;SDS011;5273;51.290;6.918;2022-10-16T00:56:16;2.17;;;2.00;;
10450;SDS011;5273;51.290;6.918;2022-10-16T00:58:44;1.55;;;1.45;;
10450;SDS011;5273;51.290;6.918;2022-10-16T01:01:11;1.75;;;1.60;;
10450;SDS011;5273;51.290;6.918;2022-10-16T01:03:40;1.60;;;1.50;;
10450;SDS011;5273;51.290;6.918;2022-10-16T01:06:18;1.58;;;1.45;;
10450;SDS011;5273;51.290;6.918;2022-10-16T01:08:53;2.72;;;1.50;;
10450;SDS011;5273;51.290;6.918;2022-10-16T01:11:34;1.60;;;1.50;;
10450;SDS011;5273;51.290;6.918;2022-10-16T01:14:06;2.13;;;1.60;;
10450;SDS011;5273;51.290;6.918;2022-10-16T01:16:41;1.52;;;1.42;;
10450;SDS011;5273;51.290;6.918;2022-10-16T01:19:16;1.80;;;1.67;;
10450;SDS011;5273;51.290;6.918;2022-10-16T01:21:48;2.25;;;1.63;;
10450;SDS011;5273;51.290;6.918;2022-10-16T01:24:23;3.63;;;1.90;;
10450;SDS011;5273;51.290;6.918;2022-10-16T01:27:07;1.73;;;1.63;;
10450;SDS011;5273;51.290;6.918;2022-10-16T01:29:39;2.42;;;1.70;;
10450;SDS011;5273;51.290;6.918;2022-10-16T01:32:15;1.85;;;1.60;;
10450;SDS011;5273;51.290;6.918;2022-10-16T01:34:47;1.60;;;1.50;;
10450;SDS011;5273;51.290;6.918;2022-10-16T01:37:19;1.27;;;1.17;;
10450;SDS011;5273;51.290;6.918;2022-10-16T01:39:55;1.50;;;1.40;;
10450;SDS011;5273;51.290;6.918;2022-10-16T01:42:27;1.58;;;1.48;;
10450;SDS011;5273;51.290;6.918;2022-10-16T01:44:58;1.67;;;1.58;;
10450;SDS011;5273;51.290;6.918;2022-10-16T01:47:26;2.65;;;1.58;;
10450;SDS011;5273;51.290;6.918;2022-10-16T01:49:56;2.10;;;1.83;;
10450;SDS011;5273;51.290;6.918;2022-10-16T01:52:26;2.10;;;1.90;;
10450;SDS011;5273;51.290;6.918;2022-10-16T01:54:54;1.45;;;1.35;;
10450;SDS011;5273;51.290;6.918;2022-10-16T01:57:24;1.98;;;1.77;;
10450;SDS011;5273;51.290;6.918;2022-10-16T01:59:54;1.70;;;1.60;;
10450;SDS011;5273;51.290;6.918;2022-10-16T02:02:26;2.15;;;1.70;;
10450;SDS011;5273;51.290;6.918;2022-10-16T02:04:58;1.70;;;1.60;;
10450;SDS011;5273;51.290;6.918;2022-10-16T02:07:30;2.33;;;2.13;;
10450;SDS011;5273;51.290;6.918;2022-10-16T02:09:58;4.43;;;1.80;;
10450;SDS011;5273;51.290;6.918;2022-10-16T02:12:28;4.63;;;1.73;;
10450;SDS011;5273;51.290;6.918;2022-10-16T02:14:57;1.95;;;1.85;;
10450;SDS011;5273;51.290;6.918;2022-10-16T02:17:24;3.55;;;1.42;;
10450;SDS011;5273;51.290;6.918;2022-10-16T02:19:52;1.55;;;1.40;;
10450;SDS011;5273;51.290;6.918;2022-10-16T02:22:24;2.13;;;1.92;;
10450;SDS011;5273;51.290;6.918;2022-10-16T02:24:54;2.13;;;1.52;;
10450;SDS011;5273;51.290;6.918;2022-10-16T02:27:25;1.63;;;1.52;;
10450;SDS011;5273;51.290;6.918;2022-10-16T02:29:59;3.10;;;1.80;;
10450;SDS011;5273;51.290;6.918;2022-10-16T02:32:32;2.22;;;2.03;;
10450;SDS011;5273;51.290;6.918;2022-10-16T02:35:01;2.20;;;2.00;;
10450;SDS011;5273;51.290;6.918;2022-10-16T02:37:29;2.20;;;1.92;;
10450;SDS011;5273;51.290;6.918;2022-10-16T02:39:58;2.33;;;1.67;;
10450;SDS011;5273;51.290;6.918;2022-10-16T02:42:31;2.60;;;2.40;;
10450;SDS011;5273;51.290;6.918;2022-10-16T02:45:00;1.90;;;1.80;;
10450;SDS011;5273;51.290;6.918;2022-10-16T02:47:27;2.55;;;2.35;;
10450;SDS011;5273;51.290;6.918;2022-10-16T02:49:54;2.03;;;1.88;;
10450;SDS011;5273;51.290;6.918;2022-10-16T02:52:21;2.03;;;1.92;;
10450;SDS011;5273;51.290;6.918;2022-10-16T02:54:48;2.38;;;2.17;;
10450;SDS011;5273;51.290;6.918;2022-10-16T02:57:15;3.15;;;2.42;;
10450;SDS011;5273;51.290;6.918;2022-10-16T02:59:44;5.20;;;2.25;;
10450;SDS011;5273;51.290;6.918;2022-10-16T03:02:11;2.65;;;2.38;;
10450;SDS011;5273;51.290;6.918;2022-10-16T03:04:38;2.50;;;2.30;;
10450;SDS011;5273;51.290;6.918;2022-10-16T03:07:05;2.03;;;1.80;;
10450;SDS011;5273;51.290;6.918;2022-10-16T03:09:32;2.42;;;2.22;;
10450;SDS011;5273;51.290;6.918;2022-10-16T03:11:59;2.88;;;2.17;;
10450;SDS011;5273;51.290;6.918;2022-10-16T03:14:27;2.15;;;2.03;;
10450;SDS011;5273;51.290;6.918;2022-10-16T03:16:55;2.50;;;2.30;;
10450;SDS011;5273;51.290;6.918;2022-10-16T03:19:22;2.85;;;2.17;;
10450;SDS011;5273;51.290;6.918;2022-10-16T03:21:49;3.63;;;2.30;;
10450;SDS011;5273;51.290;6.918;2022-10-16T03:24:16;2.90;;;2.70;;
10450;SDS011;5273;51.290;6.918;2022-10-16T03:26:43;2.10;;;1.80;;
10450;SDS011;5273;51.290;6.918;2022-10-16T03:29:10;1.88;;;1.77;;
10450;SDS011;5273;51.290;6.918;2022-10-16T03:31:37;2.15;;;1.90;;
10450;SDS011;5273;51.290;6.918;2022-10-16T03:34:06;2.50;;;2.30;;
10450;SDS011;5273;51.290;6.918;2022-10-16T03:36:32;3.13;;;2.10;;
10450;SDS011;5273;51.290;6.918;2022-10-16T03:39:00;1.90;;;1.80;;
10450;SDS011;5273;51.290;6.918;2022-10-16T03:41:27;2.05;;;1.95;;
10450;SDS011;5273;51.290;6.918;2022-10-16T03:43:54;4.78;;;2.00;;
10450;SDS011;5273;51.290;6.918;2022-10-16T03:46:21;2.40;;;2.20;;
10450;SDS011;5273;51.290;6.918;2022-10-16T03:48:48;3.10;;;2.00;;
10450;SDS011;5273;51.290;6.918;2022-10-16T03:51:17;2.70;;;2.30;;
10450;SDS011;5273;51.290;6.918;2022-10-16T03:53:43;2.47;;;2.03;;
10450;SDS011;5273;51.290;6.918;2022-10-16T03:56:10;5.13;;;1.65;;
10450;SDS011;5273;51.290;6.918;2022-10-16T03:58:37;2.50;;;1.80;;
10450;SDS011;5273;51.290;6.918;2022-10-16T04:01:05;2.15;;;1.75;;
10450;SDS011;5273;51.290;6.918;2022-10-16T04:03:32;2.15;;;1.95;;
10450;SDS011;5273;51.290;6.918;2022-10-16T04:05:59;2.10;;;2.00;;
10450;SDS011;5273;51.290;6.918;2022-10-16T04:08:27;3.67;;;1.73;;
10450;SDS011;5273;51.290;6.918;2022-10-16T04:10:54;2.53;;;1.77;;
10450;SDS011;5273;51.290;6.918;2022-10-16T04:13:21;4.82;;;2.05;;
10450;SDS011;5273;51.290;6.918;2022-10-16T04:15:48;4.10;;;1.70;;
10450;SDS011;5273;51.290;6.918;2022-10-16T04:18:16;1.98;;;1.88;;
10450;SDS011;5273;51.290;6.918;2022-10-16T04:20:43;2.20;;;2.00;;
10450;SDS011;5273;51.290;6.918;2022-10-16T04:23:10;2.13;;;2.00;;
10450;SDS011;5273;51.290;6.918;2022-10-16T04:25:38;3.90;;;2.13;;
10450;SDS011;5273;51.290;6.918;2022-10-16T04:28:05;1.95;;;1.85;;
10450;SDS011;5273;51.290;6.918;2022-10-16T04:30:32;2.08;;;1.88;;
10450;SDS011;5273;51.290;6.918;2022-10-16T04:32:59;2.08;;;1.98;;
10450;SDS011;5273;51.290;6.918;2022-10-16T04:35:26;1.67;;;1.58;;
10450;SDS011;5273;51.290;6.918;2022-10-16T04:37:53;1.73;;;1.63;;
10450;SDS011;5273;51.290;6.918;2022-10-16T04:40:21;2.03;;;1.80;;
10450;SDS011;5273;51.290;6.918;2022-10-16T04:42:49;7.47;;;1.70;;
10450;SDS011;5273;51.290;6.918;2022-10-16T04:45:16;1.63;;;1.52;;
10450;SDS011;5273;51.290;6.918;2022-10-16T04:47:43;3.58;;;1.70;;
10450;SDS011;5273;51.290;6.918;2022-10-16T04:50:10;2.60;;;1.90;;
10450;SDS011;5273;51.290;6.918;2022-10-16T04:52:37;1.83;;;1.73;;
10450;SDS011;5273;51.290;6.918;2022-10-16T04:55:04;2.13;;;1.90;;
10450;SDS011;5273;51.290;6.918;2022-10-16T04:57:32;1.50;;;1.40;;
10450;SDS011;5273;51.290;6.918;2022-10-16T05:00:00;3.97;;;1.77;;
10450;SDS011;5273;51.290;6.918;2022-10-16T05:02:28;1.70;;;1.60;;
10450;SDS011;5273;51.290;6.918;2022-10-16T05:04:55;2.33;;;1.80;;
10450;SDS011;5273;51.290;6.918;2022-10-16T05:07:22;2.55;;;1.77;;
10450;SDS011;5273;51.290;6.918;2022-10-16T05:09:49;2.50;;;1.77;;
10450;SDS011;5273;51.290;6.918;2022-10-16T05:12:16;2.30;;;1.80;;
10450;SDS011;5273;51.290;6.918;2022-10-16T05:14:43;1.67;;;1.58;;
10450;SDS011;5273;51.290;6.918;2022-10-16T05:17:12;1.50;;;1.40;;
10450;SDS011;5273;51.290;6.918;2022-10-16T05:19:39;4.32;;;2.00;;
10450;SDS011;5273;51.290;6.918;2022-10-16T05:22:06;1.90;;;1.80;;
10450;SDS011;5273;51.290;6.918;2022-10-16T05:24:33;8.60;;;1.58;;
10450;SDS011;5273;51.290;6.918;2022-10-16T05:27:00;2.03;;;1.83;;
10450;SDS011;5273;51.290;6.918;2022-10-16T05:29:27;1.77;;;1.67;;
10450;SDS011;5273;51.290;6.918;2022-10-16T05:31:54;1.70;;;1.60;;
10450;SDS011;5273;51.290;6.918;2022-10-16T05:34:23;2.20;;;1.90;;
10450;SDS011;5273;51.290;6.918;2022-10-16T05:36:49;2.08;;;1.67;;
10450;SDS011;5273;51.290;6.918;2022-10-16T05:39:16;1.73;;;1.63;;
10450;SDS011;5273;51.290;6.918;2022-10-16T05:41:44;2.10;;;1.90;;
10450;SDS011;5273;51.290;6.918;2022-10-16T05:44:11;1.73;;;1.63;;
10450;SDS011;5273;51.290;6.918;2022-10-16T05:46:38;1.65;;;1.55;;
10450;SDS011;5273;51.290;6.918;2022-10-16T05:49:05;1.85;;;1.75;;
10450;SDS011;5273;51.290;6.918;2022-10-16T05:51:33;2.10;;;1.73;;
10450;SDS011;5273;51.290;6.918;2022-10-16T05:54:00;4.57;;;2.00;;
10450;SDS011;5273;51.290;6.918;2022-10-16T05:56:27;1.97;;;1.87;;
10450;SDS011;5273;51.290;6.918;2022-10-16T05:58:54;1.80;;;1.70;;
10450;SDS011;5273;51.290;6.918;2022-10-16T06:01:21;1.67;;;1.57;;
10450;SDS011;5273;51.290;6.918;2022-10-16T06:03:49;2.25;;;1.70;;
10450;SDS011;5273;51.290;6.918;2022-10-16T06:06:16;1.70;;;1.60;;
10450;SDS011;5273;51.290;6.918;2022-10-16T06:08:47;2.03;;;1.88;;
10450;SDS011;5273;51.290;6.918;2022-10-16T06:11:15;1.63;;;1.52;;
10450;SDS011;5273;51.290;6.918;2022-10-16T06:13:43;1.67;;;1.58;;
10450;SDS011;5273;51.290;6.918;2022-10-16T06:16:11;1.77;;;1.55;;
10450;SDS011;5273;51.290;6.918;2022-10-16T06:18:38;1.70;;;1.58;;
10450;SDS011;5273;51.290;6.918;2022-10-16T06:21:09;1.95;;;1.85;;
10450;SDS011;5273;51.290;6.918;2022-10-16T06:23:37;2.25;;;1.80;;
10450;SDS011;5273;51.290;6.918;2022-10-16T06:26:07;2.58;;;1.48;;
10450;SDS011;5273;51.290;6.918;2022-10-16T06:28:35;4.10;;;1.50;;
10450;SDS011;5273;51.290;6.918;2022-10-16T06:31:02;1.30;;;1.30;;
10450;SDS011;5273;51.290;6.918;2022-10-16T06:33:30;2.35;;;1.83;;
10450;SDS011;5273;51.290;6.918;2022-10-16T06:36:01;1.30;;;1.30;;
10450;SDS011;5273;51.290;6.918;2022-10-16T06:38:28;3.03;;;1.70;;
10450;SDS011;5273;51.290;6.918;2022-10-16T06:40:55;1.98;;;1.73;;
10450;SDS011;5273;51.290;6.918;2022-10-16T06:43:24;1.55;;;1.40;;
10450;SDS011;5273;51.290;6.918;2022-10-16T06:45:51;2.60;;;1.40;;
10450;SDS011;5273;51.290;6.918;2022-10-16T06:48:19;4.68;;;1.35;;
10450;SDS011;5273;51.290;6.918;2022-10-16T06:50:54;0.82;;;0.82;;
10450;SDS011;5273;51.290;6.918;2022-10-16T06:53:22;1.20;;;1.15;;
10450;SDS011;5273;51.290;6.918;2022-10-16T06:55:49;1.30;;;1.20;;
10450;SDS011;5273;51.290;6.918;2022-10-16T06:58:16;1.20;;;1.20;;
10450;SDS011;5273;51.290;6.918;2022-10-16T07:00:44;1.40;;;1.30;;
10450;SDS011;5273;51.290;6.918;2022-10-16T07:03:11;1.63;;;1.52;;
10450;SDS011;5273;51.290;6.918;2022-10-16T07:05:39;0.90;;;0.90;;
10450;SDS011;5273;51.290;6.918;2022-10-16T07:08:06;0.90;;;0.90;;
10450;SDS011;5273;51.290;6.918;2022-10-16T07:10:33;1.85;;;1.38;;
10450;SDS011;5273;51.290;6.918;2022-10-16T07:13:00;1.10;;;1.10;;
10450;SDS011;5273;51.290;6.918;2022-10-16T07:15:27;1.25;;;0.90;;
10450;SDS011;5273;51.290;6.918;2022-10-16T07:17:56;2.22;;;1.10;;
10450;SDS011;5273;51.290;6.918;2022-10-16T07:20:22;0.80;;;0.80;;
10450;SDS011;5273;51.290;6.918;2022-10-16T07:22:50;1.48;;;1.20;;
10450;SDS011;5273;51.290;6.918;2022-10-16T07:25:17;1.65;;;1.02;;
10450;SDS011;5273;51.290;6.918;2022-10-16T07:27:44;1.17;;;1.00;;
10450;SDS011;5273;51.290;6.918;2022-10-16T07:30:11;1.30;;;1.17;;
10450;SDS011;5273;51.290;6.918;2022-10-16T07:32:38;1.20;;;1.20;;
10450;SDS011;5273;51.290;6.918;2022-10-16T07:35:07;1.02;;;1.02;;
10450;SDS011;5273;51.290;6.918;2022-10-16T07:37:34;0.90;;;0.90;;
10450;SDS011;5273;51.290;6.918;2022-10-16T07:40:01;1.00;;;1.00;;
10450;SDS011;5273;51.290;6.918;2022-10-16T07:42:28;1.02;;;1.00;;
10450;SDS011;5273;51.290;6.918;2022-10-16T07:44:55;1.90;;;1.00;;
10450;SDS011;5273;51.290;6.918;2022-10-16T07:47:23;1.40;;;1.10;;
10450;SDS011;5273;51.290;6.918;2022-10-16T07:49:50;1.95;;;1.08;;
10450;SDS011;5273;51.290;6.918;2022-10-16T07:52:18;1.85;;;1.13;;
10450;SDS011;5273;51.290;6.918;2022-10-16T07:54:45;0.80;;;0.80;;
10450;SDS011;5273;51.290;6.918;2022-10-16T07:57:12;1.00;;;0.73;;
10450;SDS011;5273;51.290;6.918;2022-10-16T07:59:44;3.10;;;0.82;;
10450;SDS011;5273;51.290;6.918;2022-10-16T08:02:11;1.10;;;1.08;;
10450;SDS011;5273;51.290;6.918;2022-10-16T08:04:38;2.33;;;0.88;;
10450;SDS011;5273;51.290;6.918;2022-10-16T08:07:06;0.73;;;0.73;;
10450;SDS011;5273;51.290;6.918;2022-10-16T08:09:34;0.80;;;0.80;;
10450;SDS011;5273;51.290;6.918;2022-10-16T08:12:01;1.10;;;0.90;;
10450;SDS011;5273;51.290;6.918;2022-10-16T08:14:29;1.17;;;0.90;;
10450;SDS011;5273;51.290;6.918;2022-10-16T08:16:56;1.02;;;0.75;;
10450;SDS011;5273;51.290;6.918;2022-10-16T08:19:22;0.80;;;0.80;;
10450;SDS011;5273;51.290;6.918;2022-10-16T08:21:49;1.67;;;0.80;;
10450;SDS011;5273;51.290;6.918;2022-10-16T08:24:16;1.17;;;1.08;;
10450;SDS011;5273;51.290;6.918;2022-10-16T08:26:44;0.60;;;0.55;;
10450;SDS011;5273;51.290;6.918;2022-10-16T08:29:11;1.30;;;0.70;;
10450;SDS011;5273;51.290;6.918;2022-10-16T08:31:39;0.75;;;0.73;;
10450;SDS011;5273;51.290;6.918;2022-10-16T08:34:06;0.70;;;0.70;;
10450;SDS011;5273;51.290;6.918;2022-10-16T08:36:33;1.02;;;0.55;;
10450;SDS011;5273;51.290;6.918;2022-10-16T08:39:00;0.57;;;0.57;;
10450;SDS011;5273;51.290;6.918;2022-10-16T08:41:34;0.75;;;0.68;;
10450;SDS011;5273;51.290;6.918;2022-10-16T08:44:30;1.33;;;0.70;;
10450;SDS011;5273;51.290;6.918;2022-10-16T08:47:07;0.90;;;0.82;;
10450;SDS011;5273;51.290;6.918;2022-10-16T08:49:42;1.33;;;0.75;;
10450;SDS011;5273;51.290;6.918;2022-10-16T08:52:20;1.40;;;0.68;;
10450;SDS011;5273;51.290;6.918;2022-10-16T08:54:48;0.55;;;0.40;;
10450;SDS011;5273;51.290;6.918;2022-10-16T08:57:20;1.58;;;0.65;;
10450;SDS011;5273;51.290;6.918;2022-10-16T08:59:49;1.02;;;0.73;;
10450;SDS011;5273;51.290;6.918;2022-10-16T09:02:20;1.75;;;0.68;;
10450;SDS011;5273;51.290;6.918;2022-10-16T09:07:49;0.60;;;0.60;;
10450;SDS011;5273;51.290;6.918;2022-10-16T09:10:28;0.70;;;0.70;;
10450;SDS011;5273;51.290;6.918;2022-10-16T09:13:08;1.67;;;1.13;;
10450;SDS011;5273;51.290;6.918;2022-10-16T09:15:43;0.90;;;0.75;;
10450;SDS011;5273;51.290;6.918;2022-10-16T09:18:19;0.52;;;0.52;;
10450;SDS011;5273;51.290;6.918;2022-10-16T09:20:53;1.75;;;0.70;;
10450;SDS011;5273;51.290;6.918;2022-10-16T09:23:25;0.45;;;0.45;;
10450;SDS011;5273;51.290;6.918;2022-10-16T09:25:54;2.38;;;0.63;;
10450;SDS011;5273;51.290;6.918;2022-10-16T09:28:21;0.43;;;0.43;;
10450;SDS011;5273;51.290;6.918;2022-10-16T09:30:49;0.70;;;0.60;;
10450;SDS011;5273;51.290;6.918;2022-10-16T09:33:17;0.43;;;0.43;;
10450;SDS011;5273;51.290;6.918;2022-10-16T09:35:47;0.55;;;0.55;;
10450;SDS011;5273;51.290;6.918;2022-10-16T09:38:24;1.45;;;0.50;;
10450;SDS011;5273;51.290;6.918;2022-10-16T09:40:53;2.50;;;0.70;;
10450;SDS011;5273;51.290;6.918;2022-10-16T09:43:21;1.13;;;0.60;;
10450;SDS011;5273;51.290;6.918;2022-10-16T09:45:57;0.80;;;0.70;;
10450;SDS011;5273;51.290;6.918;2022-10-16T09:48:27;1.60;;;0.73;;
10450;SDS011;5273;51.290;6.918;2022-10-16T09:50:58;0.50;;;0.50;;
10450;SDS011;5273;51.290;6.918;2022-10-16T09:53:26;0.52;;;0.52;;
10450;SDS011;5273;51.290;6.918;2022-10-16T09:56:09;0.60;;;0.60;;
10450;SDS011;5273;51.290;6.918;2022-10-16T09:58:41;0.68;;;0.68;;
10450;SDS011;5273;51.290;6.918;2022-10-16T10:01:12;0.77;;;0.50;;
10450;SDS011;5273;51.290;6.918;2022-10-16T10:03:41;1.08;;;0.55;;
10450;SDS011;5273;51.290;6.918;2022-10-16T10:06:20;1.27;;;0.52;;
10450;SDS011;5273;51.290;6.918;2022-10-16T10:08:59;0.73;;;0.55;;
10450;SDS011;5273;51.290;6.918;2022-10-16T10:11:36;0.98;;;0.50;;
10450;SDS011;5273;51.290;6.918;2022-10-16T10:14:05;0.55;;;0.40;;
10450;SDS011;5273;51.290;6.918;2022-10-16T10:16:33;0.82;;;0.50;;
10450;SDS011;5273;51.290;6.918;2022-10-16T10:19:00;0.75;;;0.50;;
10450;SDS011;5273;51.290;6.918;2022-10-16T10:21:27;0.47;;;0.30;;
10450;SDS011;5273;51.290;6.918;2022-10-16T10:23:57;2.05;;;0.82;;
10450;SDS011;5273;51.290;6.918;2022-10-16T10:26:25;0.45;;;0.40;;
10450;SDS011;5273;51.290;6.918;2022-10-16T10:28:55;1.65;;;0.60;;
10450;SDS011;5273;51.290;6.918;2022-10-16T10:31:33;0.80;;;0.70;;
10450;SDS011;5273;51.290;6.918;2022-10-16T10:34:11;1.15;;;0.50;;
10450;SDS011;5273;51.290;6.918;2022-10-16T10:36:49;0.63;;;0.30;;
10450;SDS011;5273;51.290;6.918;2022-10-16T10:39:23;0.30;;;0.22;;
10450;SDS011;5273;51.290;6.918;2022-10-16T10:42:04;0.90;;;0.45;;
10450;SDS011;5273;51.290;6.918;2022-10-16T10:44:52;1.63;;;0.50;;
10450;SDS011;5273;51.290;6.918;2022-10-16T10:47:34;1.77;;;0.55;;
10450;SDS011;5273;51.290;6.918;2022-10-16T10:50:14;0.93;;;0.60;;
10450;SDS011;5273;51.290;6.918;2022-10-16T10:52:52;2.60;;;0.68;;
10450;SDS011;5273;51.290;6.918;2022-10-16T10:55:27;1.15;;;0.40;;
10450;SDS011;5273;51.290;6.918;2022-10-16T11:01:04;1.40;;;0.20;;
10450;SDS011;5273;51.290;6.918;2022-10-16T11:03:42;0.50;;;0.43;;
10450;SDS011;5273;51.290;6.918;2022-10-16T11:06:24;0.98;;;0.50;;
10450;SDS011;5273;51.290;6.918;2022-10-16T11:08:55;1.85;;;0.65;;
10450;SDS011;5273;51.290;6.918;2022-10-16T11:11:29;2.38;;;0.63;;
10450;SDS011;5273;51.290;6.918;2022-10-16T11:14:02;0.65;;;0.55;;
10450;SDS011;5273;51.290;6.918;2022-10-16T11:16:37;1.38;;;0.43;;
10450;SDS011;5273;51.290;6.918;2022-10-16T11:19:11;0.82;;;0.60;;
10450;SDS011;5273;51.290;6.918;2022-10-16T11:21:43;1.80;;;0.70;;
10450;SDS011;5273;51.290;6.918;2022-10-16T11:24:16;1.55;;;0.50;;
10450;SDS011;5273;51.290;6.918;2022-10-16T11:26:48;1.70;;;0.60;;
10450;SDS011;5273;51.290;6.918;2022-10-16T11:29:18;1.40;;;0.45;;
10450;SDS011;5273;51.290;6.918;2022-10-16T11:31:50;0.68;;;0.50;;
10450;SDS011;5273;51.290;6.918;2022-10-16T11:34:24;1.35;;;0.70;;
10450;SDS011;5273;51.290;6.918;2022-10-16T11:36:56;4.15;;;0.80;;
10450;SDS011;5273;51.290;6.918;2022-10-16T11:39:27;1.27;;;0.52;;
10450;SDS011;5273;51.290;6.918;2022-10-16T11:41:57;0.70;;;0.60;;
10450;SDS011;5273;51.290;6.918;2022-10-16T11:44:36;1.17;;;0.50;;
10450;SDS011;5273;51.290;6.918;2022-10-16T11:47:14;3.03;;;0.63;;
10450;SDS011;5273;51.290;6.918;2022-10-16T11:49:55;0.52;;;0.52;;
10450;SDS011;5273;51.290;6.918;2022-10-16T11:52:27;1.20;;;0.38;;
10450;SDS011;5273;51.290;6.918;2022-10-16T11:54:59;1.75;;;0.47;;
10450;SDS011;5273;51.290;6.918;2022-10-16T11:57:31;5.60;;;0.85;;
10450;SDS011;5273;51.290;6.918;2022-10-16T12:00:02;1.98;;;0.75;;
10450;SDS011;5273;51.290;6.918;2022-10-16T12:02:47;0.80;;;0.45;;
10450;SDS011;5273;51.290;6.918;2022-10-16T12:05:26;0.68;;;0.40;;
10450;SDS011;5273;51.290;6.918;2022-10-16T12:08:02;0.50;;;0.40;;
10450;SDS011;5273;51.290;6.918;2022-10-16T12:10:34;1.55;;;0.80;;
10450;SDS011;5273;51.290;6.918;2022-10-16T12:13:02;0.40;;;0.40;;
10450;SDS011;5273;51.290;6.918;2022-10-16T12:15:30;1.80;;;0.75;;
10450;SDS011;5273;51.290;6.918;2022-10-16T12:17:57;2.50;;;0.68;;
10450;SDS011;5273;51.290;6.918;2022-10-16T12:20:27;1.25;;;0.47;;
10450;SDS011;5273;51.290;6.918;2022-10-16T12:22:58;0.57;;;0.50;;
10450;SDS011;5273;51.290;6.918;2022-10-16T12:25:28;0.40;;;0.20;;
10450;SDS011;5273;51.290;6.918;2022-10-16T12:28:00;1.75;;;0.43;;
10450;SDS011;5273;51.290;6.918;2022-10-16T12:30:29;0.63;;;0.50;;
10450;SDS011;5273;51.290;6.918;2022-10-16T12:32:58;1.08;;;0.50;;
10450;SDS011;5273;51.290;6.918;2022-10-16T12:35:29;0.90;;;0.47;;
10450;SDS011;5273;51.290;6.918;2022-10-16T12:38:05;1.45;;;0.65;;
10450;SDS011;5273;51.290;6.918;2022-10-16T12:40:34;0.45;;;0.32;;
10450;SDS011;5273;51.290;6.918;2022-10-16T12:43:26;2.40;;;0.77;;
10450;SDS011;5273;51.290;6.918;2022-10-16T12:46:02;0.40;;;0.40;;
10450;SDS011;5273;51.290;6.918;2022-10-16T12:48:31;0.65;;;0.40;;
10450;SDS011;5273;51.290;6.918;2022-10-16T12:51:10;1.73;;;0.50;;
10450;SDS011;5273;51.290;6.918;2022-10-16T12:53:38;0.32;;;0.32;;
10450;SDS011;5273;51.290;6.918;2022-10-16T12:56:09;0.50;;;0.50;;
10450;SDS011;5273;51.290;6.918;2022-10-16T12:58:57;1.30;;;0.60;;
10450;SDS011;5273;51.290;6.918;2022-10-16T13:01:40;0.65;;;0.57;;
10450;SDS011;5273;51.290;6.918;2022-10-16T13:04:23;0.38;;;0.22;;
10450;SDS011;5273;51.290;6.918;2022-10-16T13:07:06;0.85;;;0.60;;
10450;SDS011;5273;51.290;6.918;2022-10-16T13:10:01;2.08;;;0.45;;
10450;SDS011;5273;51.290;6.918;2022-10-16T13:12:40;0.70;;;0.70;;
10450;SDS011;5273;51.290;6.918;2022-10-16T13:15:39;0.32;;;0.32;;
10450;SDS011;5273;51.290;6.918;2022-10-16T13:18:19;2.00;;;0.60;;
10450;SDS011;5273;51.290;6.918;2022-10-16T13:20:53;2.72;;;0.35;;
10450;SDS011;5273;51.290;6.918;2022-10-16T13:23:29;0.93;;;0.35;;
10450;SDS011;5273;51.290;6.918;2022-10-16T13:26:06;0.68;;;0.45;;
10450;SDS011;5273;51.290;6.918;2022-10-16T13:28:40;2.70;;;2.13;;
10450;SDS011;5273;51.290;6.918;2022-10-16T13:31:10;0.50;;;0.40;;
10450;SDS011;5273;51.290;6.918;2022-10-16T13:33:42;0.57;;;0.57;;
10450;SDS011;5273;51.290;6.918;2022-10-16T13:36:20;2.53;;;0.60;;
10450;SDS011;5273;51.290;6.918;2022-10-16T13:38:50;2.60;;;0.88;;
10450;SDS011;5273;51.290;6.918;2022-10-16T13:41:29;0.38;;;0.32;;
10450;SDS011;5273;51.290;6.918;2022-10-16T13:43:57;1.20;;;0.50;;
10450;SDS011;5273;51.290;6.918;2022-10-16T13:46:24;1.35;;;0.60;;
10450;SDS011;5273;51.290;6.918;2022-10-16T13:48:57;1.95;;;0.82;;
10450;SDS011;5273;51.290;6.918;2022-10-16T13:51:24;1.13;;;0.50;;
10450;SDS011;5273;51.290;6.918;2022-10-16T13:53:54;1.55;;;0.50;;
10450;SDS011;5273;51.290;6.918;2022-10-16T13:56:21;1.35;;;0.65;;
10450;SDS011;5273;51.290;6.918;2022-10-16T13:58:58;1.38;;;0.57;;
10450;SDS011;5273;51.290;6.918;2022-10-16T14:01:26;0.47;;;0.38;;
10450;SDS011;5273;51.290;6.918;2022-10-16T14:03:59;1.88;;;0.63;;
10450;SDS011;5273;51.290;6.918;2022-10-16T14:06:28;0.63;;;0.63;;
10450;SDS011;5273;51.290;6.918;2022-10-16T14:08:58;0.80;;;0.52;;
10450;SDS011;5273;51.290;6.918;2022-10-16T14:11:27;0.90;;;0.80;;
10450;SDS011;5273;51.290;6.918;2022-10-16T14:13:55;0.50;;;0.45;;
10450;SDS011;5273;51.290;6.918;2022-10-16T14:16:22;1.10;;;0.73;;
10450;SDS011;5273;51.290;6.918;2022-10-16T14:18:55;0.40;;;0.40;;
10450;SDS011;5273;51.290;6.918;2022-10-16T14:21:24;2.33;;;0.80;;
10450;SDS011;5273;51.290;6.918;2022-10-16T14:23:51;1.73;;;0.68;;
10450;SDS011;5273;51.290;6.918;2022-10-16T14:26:21;0.60;;;0.60;;
10450;SDS011;5273;51.290;6.918;2022-10-16T14:29:00;1.15;;;0.73;;
10450;SDS011;5273;51.290;6.918;2022-10-16T14:31:31;0.32;;;0.30;;
10450;SDS011;5273;51.290;6.918;2022-10-16T14:33:58;0.63;;;0.47;;
10450;SDS011;5273;51.290;6.918;2022-10-16T14:36:26;2.17;;;0.52;;
10450;SDS011;5273;51.290;6.918;2022-10-16T14:38:56;0.60;;;0.60;;
10450;SDS011;5273;51.290;6.918;2022-10-16T14:41:28;0.45;;;0.45;;
10450;SDS011;5273;51.290;6.918;2022-10-16T14:43:56;1.17;;;0.45;;
10450;SDS011;5273;51.290;6.918;2022-10-16T14:46:31;0.52;;;0.50;;
10450;SDS011;5273;51.290;6.918;2022-10-16T14:49:02;1.00;;;0.63;;
10450;SDS011;5273;51.290;6.918;2022-10-16T14:51:39;2.33;;;0.60;;
10450;SDS011;5273;51.290;6.918;2022-10-16T14:54:07;0.70;;;0.50;;
10450;SDS011;5273;51.290;6.918;2022-10-16T14:56:45;0.80;;;0.50;;
10450;SDS011;5273;51.290;6.918;2022-10-16T14:59:14;0.65;;;0.40;;
10450;SDS011;5273;51.290;6.918;2022-10-16T15:01:43;1.33;;;0.60;;
10450;SDS011;5273;51.290;6.918;2022-10-16T15:04:11;1.88;;;0.68;;
10450;SDS011;5273;51.290;6.918;2022-10-16T15:06:38;1.23;;;0.73;;
10450;SDS011;5273;51.290;6.918;2022-10-16T15:09:06;1.45;;;0.47;;
10450;SDS011;5273;51.290;6.918;2022-10-16T15:11:33;1.98;;;0.32;;
10450;SDS011;5273;51.290;6.918;2022-10-16T15:14:02;0.60;;;0.57;;
10450;SDS011;5273;51.290;6.918;2022-10-16T15:16:29;0.90;;;0.30;;
10450;SDS011;5273;51.290;6.918;2022-10-16T15:18:57;0.47;;;0.40;;
10450;SDS011;5273;51.290;6.918;2022-10-16T15:21:25;0.63;;;0.40;;
10450;SDS011;5273;51.290;6.918;2022-10-16T15:23:53;1.17;;;0.50;;
10450;SDS011;5273;51.290;6.918;2022-10-16T15:26:21;1.20;;;0.55;;